< < Back
Terminal Aerodrome Forecast


Current Version              Previous Versions:   1  2  3  4  5  6  7  8  9  

Terminal Aerodrome Forecast

714
FTUS42 KJAX 161300 AAA
TAFSSI
TAF AMD
KSSI 161306Z 1613/1712 04017G27KT P6SM BKN030
     FM170100 05011KT P6SM BKN025=



Latest METAR

894
SAUS70 KWBC 170100 RRE
MTRSSI
METAR KSSI 170053Z AUTO 04014G21KT 10SM -RA FEW024 13/07 A3027 RMK AO2
SLP251 P0000 T01280072


USA.gov is the U.S. government's official web portal to all federal, state and local government web resources and services.